sensor_id;sensor_type;location;lat;lon;timestamp;temperature;humidity
20672;DHT22;10495;50.922;4.760;2022-09-12T00:00:44;15.70;86.60
20672;DHT22;10495;50.922;4.760;2022-09-12T00:03:10;15.60;86.30
20672;DHT22;10495;50.922;4.760;2022-09-12T00:05:44;15.50;86.10
20672;DHT22;10495;50.922;4.760;2022-09-12T00:08:10;15.40;86.30
20672;DHT22;10495;50.922;4.760;2022-09-12T00:10:40;15.50;86.40
20672;DHT22;10495;50.922;4.760;2022-09-12T00:13:07;15.50;86.50
20672;DHT22;10495;50.922;4.760;2022-09-12T00:15:38;15.40;86.80
20672;DHT22;10495;50.922;4.760;2022-09-12T00:18:03;15.40;86.90
20672;DHT22;10495;50.922;4.760;2022-09-12T00:20:29;15.30;86.90
20672;DHT22;10495;50.922;4.760;2022-09-12T00:22:55;15.30;86.90
20672;DHT22;10495;50.922;4.760;2022-09-12T00:25:20;15.30;86.80
20672;DHT22;10495;50.922;4.760;2022-09-12T00:27:46;15.20;86.80
20672;DHT22;10495;50.922;4.760;2022-09-12T00:30:12;15.20;86.90
20672;DHT22;10495;50.922;4.760;2022-09-12T00:32:37;15.10;86.90
20672;DHT22;10495;50.922;4.760;2022-09-12T00:35:03;15.10;86.90
20672;DHT22;10495;50.922;4.760;2022-09-12T00:37:29;15.10;87.00
20672;DHT22;10495;50.922;4.760;2022-09-12T00:39:54;15.10;87.00
20672;DHT22;10495;50.922;4.760;2022-09-12T00:42:20;15.10;87.20
20672;DHT22;10495;50.922;4.760;2022-09-12T00:44:48;15.10;87.30
20672;DHT22;10495;50.922;4.760;2022-09-12T00:47:28;15.10;87.30
20672;DHT22;10495;50.922;4.760;2022-09-12T00:50:11;15.30;86.90
20672;DHT22;10495;50.922;4.760;2022-09-12T00:52:50;15.60;86.90
20672;DHT22;10495;50.922;4.760;2022-09-12T00:57:58;15.50;87.20
20672;DHT22;10495;50.922;4.760;2022-09-12T01:00:26;15.30;87.70
20672;DHT22;10495;50.922;4.760;2022-09-12T01:03:03;15.20;87.80
20672;DHT22;10495;50.922;4.760;2022-09-12T01:05:33;15.20;87.90
20672;DHT22;10495;50.922;4.760;2022-09-12T01:08:00;15.20;87.90
20672;DHT22;10495;50.922;4.760;2022-09-12T01:10:26;15.10;87.90
20672;DHT22;10495;50.922;4.760;2022-09-12T01:12:52;15.10;87.90
20672;DHT22;10495;50.922;4.760;2022-09-12T01:15:18;15.10;87.80
20672;DHT22;10495;50.922;4.760;2022-09-12T01:23:32;15.00;87.50
20672;DHT22;10495;50.922;4.760;2022-09-12T01:26:20;14.90;87.50
20672;DHT22;10495;50.922;4.760;2022-09-12T01:32:00;14.90;87.50
20672;DHT22;10495;50.922;4.760;2022-09-12T01:34:40;14.80;87.50
20672;DHT22;10495;50.922;4.760;2022-09-12T01:37:39;14.80;87.60
20672;DHT22;10495;50.922;4.760;2022-09-12T01:40:21;14.80;87.80
20672;DHT22;10495;50.922;4.760;2022-09-12T01:45:47;14.70;87.70
20672;DHT22;10495;50.922;4.760;2022-09-12T01:48:19;14.70;87.80
20672;DHT22;10495;50.922;4.760;2022-09-12T01:50:52;14.70;87.80
20672;DHT22;10495;50.922;4.760;2022-09-12T01:53:34;14.70;87.90
20672;DHT22;10495;50.922;4.760;2022-09-12T01:56:20;14.70;87.90
20672;DHT22;10495;50.922;4.760;2022-09-12T01:58:55;14.70;87.90
20672;DHT22;10495;50.922;4.760;2022-09-12T02:01:26;14.60;88.20
20672;DHT22;10495;50.922;4.760;2022-09-12T02:04:09;14.60;88.30
20672;DHT22;10495;50.922;4.760;2022-09-12T02:09:48;14.60;88.30
20672;DHT22;10495;50.922;4.760;2022-09-12T02:12:19;14.60;88.40
20672;DHT22;10495;50.922;4.760;2022-09-12T02:15:00;14.60;88.30
20672;DHT22;10495;50.922;4.760;2022-09-12T02:17:27;14.60;88.70
20672;DHT22;10495;50.922;4.760;2022-09-12T02:20:04;14.60;88.20
20672;DHT22;10495;50.922;4.760;2022-09-12T02:22:34;14.60;88.10
20672;DHT22;10495;50.922;4.760;2022-09-12T02:25:02;14.60;88.10
20672;DHT22;10495;50.922;4.760;2022-09-12T02:30:06;14.70;87.70
20672;DHT22;10495;50.922;4.760;2022-09-12T02:32:35;14.60;88.00
20672;DHT22;10495;50.922;4.760;2022-09-12T02:40:24;14.50;88.60
20672;DHT22;10495;50.922;4.760;2022-09-12T02:42:50;14.50;88.50
20672;DHT22;10495;50.922;4.760;2022-09-12T02:45:17;14.50;88.90
20672;DHT22;10495;50.922;4.760;2022-09-12T02:47:48;14.50;88.40
20672;DHT22;10495;50.922;4.760;2022-09-12T02:50:15;14.50;88.40
20672;DHT22;10495;50.922;4.760;2022-09-12T02:52:41;14.50;88.50
20672;DHT22;10495;50.922;4.760;2022-09-12T02:55:08;14.40;88.90
20672;DHT22;10495;50.922;4.760;2022-09-12T02:57:36;14.50;88.50
20672;DHT22;10495;50.922;4.760;2022-09-12T03:00:03;14.50;88.40
20672;DHT22;10495;50.922;4.760;2022-09-12T03:25:02;14.30;88.00
20672;DHT22;10495;50.922;4.760;2022-09-12T03:27:43;14.20;87.90
20672;DHT22;10495;50.922;4.760;2022-09-12T03:30:10;14.30;88.00
20672;DHT22;10495;50.922;4.760;2022-09-12T03:32:45;14.20;87.80
20672;DHT22;10495;50.922;4.760;2022-09-12T03:35:11;14.40;88.30
20672;DHT22;10495;50.922;4.760;2022-09-12T03:37:37;14.40;87.30
20672;DHT22;10495;50.922;4.760;2022-09-12T03:40:04;14.50;87.30
20672;DHT22;10495;50.922;4.760;2022-09-12T03:42:29;14.30;87.60
20672;DHT22;10495;50.922;4.760;2022-09-12T03:44:55;14.20;88.10
20672;DHT22;10495;50.922;4.760;2022-09-12T03:47:20;14.10;88.30
20672;DHT22;10495;50.922;4.760;2022-09-12T03:49:46;14.30;88.30
20672;DHT22;10495;50.922;4.760;2022-09-12T03:52:11;14.30;87.90
20672;DHT22;10495;50.922;4.760;2022-09-12T03:54:37;14.20;88.00
20672;DHT22;10495;50.922;4.760;2022-09-12T03:57:04;14.10;88.10
20672;DHT22;10495;50.922;4.760;2022-09-12T03:59:30;14.00;88.20
20672;DHT22;10495;50.922;4.760;2022-09-12T04:01:55;14.00;88.30
20672;DHT22;10495;50.922;4.760;2022-09-12T04:04:21;14.00;88.30
20672;DHT22;10495;50.922;4.760;2022-09-12T04:06:46;14.00;88.30
20672;DHT22;10495;50.922;4.760;2022-09-12T04:09:12;14.00;88.30
20672;DHT22;10495;50.922;4.760;2022-09-12T04:11:38;14.00;88.80
20672;DHT22;10495;50.922;4.760;2022-09-12T04:14:04;14.00;88.50
20672;DHT22;10495;50.922;4.760;2022-09-12T04:16:30;13.90;89.00
20672;DHT22;10495;50.922;4.760;2022-09-12T04:18:56;14.00;88.60
20672;DHT22;10495;50.922;4.760;2022-09-12T04:21:23;13.90;88.40
20672;DHT22;10495;50.922;4.760;2022-09-12T04:23:49;13.90;89.10
20672;DHT22;10495;50.922;4.760;2022-09-12T04:26:16;14.00;88.60
20672;DHT22;10495;50.922;4.760;2022-09-12T04:28:42;13.90;88.50
20672;DHT22;10495;50.922;4.760;2022-09-12T04:31:11;13.90;88.70
20672;DHT22;10495;50.922;4.760;2022-09-12T04:33:38;13.90;88.60
20672;DHT22;10495;50.922;4.760;2022-09-12T04:36:14;13.90;88.60
20672;DHT22;10495;50.922;4.760;2022-09-12T04:38:42;13.90;88.60
20672;DHT22;10495;50.922;4.760;2022-09-12T04:41:25;13.80;88.50
20672;DHT22;10495;50.922;4.760;2022-09-12T04:43:53;13.80;88.20
20672;DHT22;10495;50.922;4.760;2022-09-12T04:46:20;13.80;88.40
20672;DHT22;10495;50.922;4.760;2022-09-12T04:48:47;13.80;88.40
20672;DHT22;10495;50.922;4.760;2022-09-12T04:51:16;13.70;88.50
20672;DHT22;10495;50.922;4.760;2022-09-12T04:53:42;13.80;88.60
20672;DHT22;10495;50.922;4.760;2022-09-12T04:56:11;13.70;88.70
20672;DHT22;10495;50.922;4.760;2022-09-12T04:58:37;13.80;88.90
20672;DHT22;10495;50.922;4.760;2022-09-12T05:01:20;13.80;88.80
20672;DHT22;10495;50.922;4.760;2022-09-12T05:03:47;13.80;88.60
20672;DHT22;10495;50.922;4.760;2022-09-12T05:06:18;13.80;88.50
20672;DHT22;10495;50.922;4.760;2022-09-12T05:08:45;13.80;88.70
20672;DHT22;10495;50.922;4.760;2022-09-12T05:11:13;13.80;88.60
20672;DHT22;10495;50.922;4.760;2022-09-12T05:13:40;13.80;88.60
20672;DHT22;10495;50.922;4.760;2022-09-12T05:16:07;13.80;88.70
20672;DHT22;10495;50.922;4.760;2022-09-12T05:18:34;13.80;88.60
20672;DHT22;10495;50.922;4.760;2022-09-12T05:21:00;13.80;88.70
20672;DHT22;10495;50.922;4.760;2022-09-12T05:23:27;13.70;89.10
20672;DHT22;10495;50.922;4.760;2022-09-12T05:25:55;13.80;88.70
20672;DHT22;10495;50.922;4.760;2022-09-12T05:28:23;13.80;88.80
20672;DHT22;10495;50.922;4.760;2022-09-12T05:31:02;13.80;88.70
20672;DHT22;10495;50.922;4.760;2022-09-12T05:33:28;13.80;88.60
20672;DHT22;10495;50.922;4.760;2022-09-12T05:35:54;13.80;88.70
20672;DHT22;10495;50.922;4.760;2022-09-12T05:38:20;13.80;88.50
20672;DHT22;10495;50.922;4.760;2022-09-12T05:40:45;13.70;88.40
20672;DHT22;10495;50.922;4.760;2022-09-12T05:43:11;13.70;88.60
20672;DHT22;10495;50.922;4.760;2022-09-12T05:45:37;13.70;89.10
20672;DHT22;10495;50.922;4.760;2022-09-12T05:48:03;13.80;88.70
20672;DHT22;10495;50.922;4.760;2022-09-12T05:50:29;13.70;88.70
20672;DHT22;10495;50.922;4.760;2022-09-12T05:52:56;13.80;88.70
20672;DHT22;10495;50.922;4.760;2022-09-12T05:55:22;13.70;88.60
20672;DHT22;10495;50.922;4.760;2022-09-12T05:57:49;13.70;88.80
20672;DHT22;10495;50.922;4.760;2022-09-12T06:00:15;13.80;89.10
20672;DHT22;10495;50.922;4.760;2022-09-12T06:02:40;13.80;89.10
20672;DHT22;10495;50.922;4.760;2022-09-12T06:05:07;13.80;89.00
20672;DHT22;10495;50.922;4.760;2022-09-12T06:07:33;13.80;88.90
20672;DHT22;10495;50.922;4.760;2022-09-12T06:10:00;13.80;89.00
20672;DHT22;10495;50.922;4.760;2022-09-12T06:12:27;13.90;89.10
20672;DHT22;10495;50.922;4.760;2022-09-12T06:14:54;13.90;89.60
20672;DHT22;10495;50.922;4.760;2022-09-12T06:17:20;13.90;89.00
20672;DHT22;10495;50.922;4.760;2022-09-12T06:19:46;13.90;88.90
20672;DHT22;10495;50.922;4.760;2022-09-12T06:22:12;13.90;88.90
20672;DHT22;10495;50.922;4.760;2022-09-12T06:24:38;14.00;89.00
20672;DHT22;10495;50.922;4.760;2022-09-12T06:27:03;14.10;89.10
20672;DHT22;10495;50.922;4.760;2022-09-12T06:29:29;14.10;89.10
20672;DHT22;10495;50.922;4.760;2022-09-12T06:31:57;14.20;89.30
20672;DHT22;10495;50.922;4.760;2022-09-12T06:34:23;14.40;89.60
20672;DHT22;10495;50.922;4.760;2022-09-12T06:36:49;14.70;89.80
20672;DHT22;10495;50.922;4.760;2022-09-12T06:39:20;14.90;89.40
20672;DHT22;10495;50.922;4.760;2022-09-12T06:41:48;15.30;89.30
20672;DHT22;10495;50.922;4.760;2022-09-12T06:44:19;15.60;89.20
20672;DHT22;10495;50.922;4.760;2022-09-12T06:46:45;16.20;89.10
20672;DHT22;10495;50.922;4.760;2022-09-12T06:49:11;16.60;87.20
20672;DHT22;10495;50.922;4.760;2022-09-12T06:51:36;17.10;86.20
20672;DHT22;10495;50.922;4.760;2022-09-12T06:54:03;17.60;85.90
20672;DHT22;10495;50.922;4.760;2022-09-12T06:56:30;18.10;85.60
20672;DHT22;10495;50.922;4.760;2022-09-12T06:58:56;18.60;83.80
20672;DHT22;10495;50.922;4.760;2022-09-12T07:01:25;19.10;83.30
20672;DHT22;10495;50.922;4.760;2022-09-12T07:03:53;19.60;82.20
20672;DHT22;10495;50.922;4.760;2022-09-12T07:06:21;20.00;80.80
20672;DHT22;10495;50.922;4.760;2022-09-12T07:08:47;20.50;81.30
20672;DHT22;10495;50.922;4.760;2022-09-12T07:11:21;21.00;80.00
20672;DHT22;10495;50.922;4.760;2022-09-12T07:13:50;21.40;78.30
20672;DHT22;10495;50.922;4.760;2022-09-12T07:16:16;21.80;77.70
20672;DHT22;10495;50.922;4.760;2022-09-12T07:18:42;22.40;76.50
20672;DHT22;10495;50.922;4.760;2022-09-12T07:21:12;22.70;75.20
20672;DHT22;10495;50.922;4.760;2022-09-12T07:23:38;23.20;72.40
20672;DHT22;10495;50.922;4.760;2022-09-12T07:26:05;23.50;71.60
20672;DHT22;10495;50.922;4.760;2022-09-12T07:28:33;23.80;71.00
20672;DHT22;10495;50.922;4.760;2022-09-12T07:31:05;24.10;70.00
20672;DHT22;10495;50.922;4.760;2022-09-12T07:33:31;24.60;68.70
20672;DHT22;10495;50.922;4.760;2022-09-12T07:36:05;24.90;68.30
20672;DHT22;10495;50.922;4.760;2022-09-12T07:38:31;25.20;68.00
20672;DHT22;10495;50.922;4.760;2022-09-12T07:40:57;25.40;65.30
20672;DHT22;10495;50.922;4.760;2022-09-12T07:43:24;25.60;65.10
20672;DHT22;10495;50.922;4.760;2022-09-12T07:45:56;25.70;64.90
20672;DHT22;10495;50.922;4.760;2022-09-12T07:48:21;26.00;61.10
20672;DHT22;10495;50.922;4.760;2022-09-12T07:50:58;26.10;60.30
20672;DHT22;10495;50.922;4.760;2022-09-12T07:53:25;26.10;60.00
20672;DHT22;10495;50.922;4.760;2022-09-12T07:55:53;26.10;62.00
20672;DHT22;10495;50.922;4.760;2022-09-12T07:58:19;26.20;60.00
20672;DHT22;10495;50.922;4.760;2022-09-12T08:00:44;26.30;59.90
20672;DHT22;10495;50.922;4.760;2022-09-12T08:03:10;26.60;61.20
20672;DHT22;10495;50.922;4.760;2022-09-12T08:05:36;26.90;59.60
20672;DHT22;10495;50.922;4.760;2022-09-12T08:08:01;27.30;59.90
20672;DHT22;10495;50.922;4.760;2022-09-12T08:10:27;27.40;59.60
20672;DHT22;10495;50.922;4.760;2022-09-12T08:12:52;27.40;58.90
20672;DHT22;10495;50.922;4.760;2022-09-12T08:15:18;27.40;59.20
20672;DHT22;10495;50.922;4.760;2022-09-12T08:17:44;27.80;59.00
20672;DHT22;10495;50.922;4.760;2022-09-12T08:20:10;28.10;58.80
20672;DHT22;10495;50.922;4.760;2022-09-12T08:22:36;28.20;58.50
20672;DHT22;10495;50.922;4.760;2022-09-12T08:25:04;28.30;57.30
20672;DHT22;10495;50.922;4.760;2022-09-12T08:27:29;27.80;57.20
20672;DHT22;10495;50.922;4.760;2022-09-12T08:29:55;27.60;57.60
20672;DHT22;10495;50.922;4.760;2022-09-12T08:32:20;27.70;58.70
20672;DHT22;10495;50.922;4.760;2022-09-12T08:34:46;27.90;57.40
20672;DHT22;10495;50.922;4.760;2022-09-12T08:37:12;27.80;58.40
20672;DHT22;10495;50.922;4.760;2022-09-12T08:39:37;28.10;57.70
20672;DHT22;10495;50.922;4.760;2022-09-12T08:42:04;28.30;57.60
20672;DHT22;10495;50.922;4.760;2022-09-12T08:44:49;28.40;57.50
20672;DHT22;10495;50.922;4.760;2022-09-12T08:47:44;28.20;56.60
20672;DHT22;10495;50.922;4.760;2022-09-12T08:57:47;28.20;57.60
20672;DHT22;10495;50.922;4.760;2022-09-12T09:00:13;28.10;56.40
20672;DHT22;10495;50.922;4.760;2022-09-12T09:05:41;28.20;57.40
20672;DHT22;10495;50.922;4.760;2022-09-12T09:14:09;28.50;56.50
20672;DHT22;10495;50.922;4.760;2022-09-12T09:16:59;28.70;57.20
20672;DHT22;10495;50.922;4.760;2022-09-12T09:19:37;28.90;57.10
20672;DHT22;10495;50.922;4.760;2022-09-12T09:22:11;28.70;56.40
20672;DHT22;10495;50.922;4.760;2022-09-12T09:24:43;28.90;55.40
20672;DHT22;10495;50.922;4.760;2022-09-12T09:27:18;29.00;55.50
20672;DHT22;10495;50.922;4.760;2022-09-12T09:29:50;29.10;56.00
20672;DHT22;10495;50.922;4.760;2022-09-12T09:32:18;29.20;54.70
20672;DHT22;10495;50.922;4.760;2022-09-12T09:34:47;29.20;54.50
20672;DHT22;10495;50.922;4.760;2022-09-12T09:37:34;29.30;55.10
20672;DHT22;10495;50.922;4.760;2022-09-12T09:42:56;29.90;53.80
20672;DHT22;10495;50.922;4.760;2022-09-12T09:45:24;29.80;54.30
20672;DHT22;10495;50.922;4.760;2022-09-12T09:47:57;29.90;54.30
20672;DHT22;10495;50.922;4.760;2022-09-12T09:50:24;30.20;54.40
20672;DHT22;10495;50.922;4.760;2022-09-12T09:52:51;30.50;54.30
20672;DHT22;10495;50.922;4.760;2022-09-12T09:55:23;30.50;53.50
20672;DHT22;10495;50.922;4.760;2022-09-12T09:57:50;30.70;53.50
20672;DHT22;10495;50.922;4.760;2022-09-12T10:00:29;30.70;53.60
20672;DHT22;10495;50.922;4.760;2022-09-12T10:03:04;31.10;53.40
20672;DHT22;10495;50.922;4.760;2022-09-12T10:05:33;30.50;53.80
20672;DHT22;10495;50.922;4.760;2022-09-12T10:08:00;30.30;52.60
20672;DHT22;10495;50.922;4.760;2022-09-12T10:10:26;29.90;52.80
20672;DHT22;10495;50.922;4.760;2022-09-12T10:13:12;29.30;53.20
20672;DHT22;10495;50.922;4.760;2022-09-12T10:15:59;28.80;52.90
20672;DHT22;10495;50.922;4.760;2022-09-12T10:18:37;28.30;54.00
20672;DHT22;10495;50.922;4.760;2022-09-12T10:21:13;27.80;54.90
20672;DHT22;10495;50.922;4.760;2022-09-12T10:23:40;27.50;54.20
20672;DHT22;10495;50.922;4.760;2022-09-12T10:26:14;27.60;53.20
20672;DHT22;10495;50.922;4.760;2022-09-12T10:28:48;27.40;53.30
20672;DHT22;10495;50.922;4.760;2022-09-12T10:31:22;27.30;52.80
20672;DHT22;10495;50.922;4.760;2022-09-12T10:33:55;27.00;53.00
20672;DHT22;10495;50.922;4.760;2022-09-12T10:36:21;26.30;53.90
20672;DHT22;10495;50.922;4.760;2022-09-12T10:38:56;25.70;55.20
20672;DHT22;10495;50.922;4.760;2022-09-12T10:41:23;25.50;55.50
20672;DHT22;10495;50.922;4.760;2022-09-12T10:43:49;25.50;55.50
20672;DHT22;10495;50.922;4.760;2022-09-12T10:48:41;25.50;56.10
20672;DHT22;10495;50.922;4.760;2022-09-12T10:51:25;25.60;56.50
20672;DHT22;10495;50.922;4.760;2022-09-12T10:53:57;25.80;56.10
20672;DHT22;10495;50.922;4.760;2022-09-12T10:56:29;25.90;55.50
20672;DHT22;10495;50.922;4.760;2022-09-12T11:05:13;26.10;54.00
20672;DHT22;10495;50.922;4.760;2022-09-12T11:07:54;25.70;54.20
20672;DHT22;10495;50.922;4.760;2022-09-12T11:10:47;25.70;54.20
20672;DHT22;10495;50.922;4.760;2022-09-12T11:14:02;25.30;54.60
20672;DHT22;10495;50.922;4.760;2022-09-12T11:22:29;25.20;56.10
20672;DHT22;10495;50.922;4.760;2022-09-12T11:25:12;25.00;55.30
20672;DHT22;10495;50.922;4.760;2022-09-12T11:33:42;25.60;54.30
20672;DHT22;10495;50.922;4.760;2022-09-12T11:36:44;25.50;54.10
20672;DHT22;10495;50.922;4.760;2022-09-12T11:41:42;25.20;54.60
20672;DHT22;10495;50.922;4.760;2022-09-12T11:44:20;25.20;55.20
20672;DHT22;10495;50.922;4.760;2022-09-12T11:46:46;25.30;54.70
20672;DHT22;10495;50.922;4.760;2022-09-12T11:49:16;25.20;54.80
20672;DHT22;10495;50.922;4.760;2022-09-12T11:54:48;25.30;55.30
20672;DHT22;10495;50.922;4.760;2022-09-12T12:00:01;25.50;55.00
20672;DHT22;10495;50.922;4.760;2022-09-12T12:02:31;25.30;55.30
20672;DHT22;10495;50.922;4.760;2022-09-12T12:07:40;25.70;53.60
20672;DHT22;10495;50.922;4.760;2022-09-12T12:10:20;25.40;54.00
20672;DHT22;10495;50.922;4.760;2022-09-12T12:12:46;25.40;54.50
20672;DHT22;10495;50.922;4.760;2022-09-12T12:15:13;25.40;54.80
20672;DHT22;10495;50.922;4.760;2022-09-12T12:17:40;25.20;54.70
20672;DHT22;10495;50.922;4.760;2022-09-12T12:20:15;25.40;54.90
20672;DHT22;10495;50.922;4.760;2022-09-12T12:22:54;25.50;53.70
20672;DHT22;10495;50.922;4.760;2022-09-12T12:25:37;25.90;53.00
20672;DHT22;10495;50.922;4.760;2022-09-12T12:28:03;25.90;53.30
20672;DHT22;10495;50.922;4.760;2022-09-12T12:32:59;25.80;54.00
20672;DHT22;10495;50.922;4.760;2022-09-12T12:38:31;25.70;53.60
20672;DHT22;10495;50.922;4.760;2022-09-12T12:43:42;25.80;54.10
20672;DHT22;10495;50.922;4.760;2022-09-12T12:46:10;25.80;54.20
20672;DHT22;10495;50.922;4.760;2022-09-12T12:48:48;26.10;53.20
20672;DHT22;10495;50.922;4.760;2022-09-12T12:57:20;26.40;51.90
20672;DHT22;10495;50.922;4.760;2022-09-12T13:00:03;26.40;52.10
20672;DHT22;10495;50.922;4.760;2022-09-12T13:02:47;26.10;52.80
20672;DHT22;10495;50.922;4.760;2022-09-12T13:05:22;26.20;52.90
20672;DHT22;10495;50.922;4.760;2022-09-12T13:08:05;26.30;52.00
20672;DHT22;10495;50.922;4.760;2022-09-12T13:10:32;26.60;51.80
20672;DHT22;10495;50.922;4.760;2022-09-12T13:13:03;26.20;51.70
20672;DHT22;10495;50.922;4.760;2022-09-12T13:18:08;26.10;52.70
20672;DHT22;10495;50.922;4.760;2022-09-12T13:21:05;26.00;52.80
20672;DHT22;10495;50.922;4.760;2022-09-12T13:23:32;26.20;52.60
20672;DHT22;10495;50.922;4.760;2022-09-12T13:26:00;26.00;52.30
20672;DHT22;10495;50.922;4.760;2022-09-12T13:28:28;26.10;53.00
20672;DHT22;10495;50.922;4.760;2022-09-12T13:33:48;26.10;52.40
20672;DHT22;10495;50.922;4.760;2022-09-12T13:44:54;26.60;52.50
20672;DHT22;10495;50.922;4.760;2022-09-12T13:47:30;26.40;52.60
20672;DHT22;10495;50.922;4.760;2022-09-12T13:49:57;26.50;52.40
20672;DHT22;10495;50.922;4.760;2022-09-12T13:52:26;26.60;51.70
20672;DHT22;10495;50.922;4.760;2022-09-12T13:54:55;26.70;51.90
20672;DHT22;10495;50.922;4.760;2022-09-12T13:59:57;26.80;52.60
20672;DHT22;10495;50.922;4.760;2022-09-12T14:02:26;26.90;52.30
20672;DHT22;10495;50.922;4.760;2022-09-12T14:04:54;26.80;53.00
20672;DHT22;10495;50.922;4.760;2022-09-12T14:07:44;26.70;52.80
20672;DHT22;10495;50.922;4.760;2022-09-12T14:10:18;26.90;52.80
20672;DHT22;10495;50.922;4.760;2022-09-12T14:12:45;26.90;52.40
20672;DHT22;10495;50.922;4.760;2022-09-12T14:15:26;26.90;52.50
20672;DHT22;10495;50.922;4.760;2022-09-12T14:17:58;27.30;51.10
20672;DHT22;10495;50.922;4.760;2022-09-12T14:20:26;27.20;51.70
20672;DHT22;10495;50.922;4.760;2022-09-12T14:23:01;27.40;51.40
20672;DHT22;10495;50.922;4.760;2022-09-12T14:25:34;27.50;50.70
20672;DHT22;10495;50.922;4.760;2022-09-12T14:28:02;27.20;51.60
20672;DHT22;10495;50.922;4.760;2022-09-12T14:30:30;27.10;51.60
20672;DHT22;10495;50.922;4.760;2022-09-12T14:35:36;26.80;52.00
20672;DHT22;10495;50.922;4.760;2022-09-12T14:40:44;26.90;51.90
20672;DHT22;10495;50.922;4.760;2022-09-12T14:43:38;26.80;52.30
20672;DHT22;10495;50.922;4.760;2022-09-12T14:46:21;27.00;51.90
20672;DHT22;10495;50.922;4.760;2022-09-12T14:48:51;26.80;52.00
20672;DHT22;10495;50.922;4.760;2022-09-12T14:51:38;27.00;52.10
20672;DHT22;10495;50.922;4.760;2022-09-12T14:54:05;27.00;51.70
20672;DHT22;10495;50.922;4.760;2022-09-12T14:56:42;27.30;51.20
20672;DHT22;10495;50.922;4.760;2022-09-12T15:02:27;27.40;51.10
20672;DHT22;10495;50.922;4.760;2022-09-12T15:07:31;26.90;52.30
20672;DHT22;10495;50.922;4.760;2022-09-12T15:10:01;26.90;51.90
20672;DHT22;10495;50.922;4.760;2022-09-12T15:12:27;26.90;51.90
20672;DHT22;10495;50.922;4.760;2022-09-12T15:14:58;27.00;51.40
20672;DHT22;10495;50.922;4.760;2022-09-12T15:17:25;27.10;51.80
20672;DHT22;10495;50.922;4.760;2022-09-12T15:19:50;26.90;51.90
20672;DHT22;10495;50.922;4.760;2022-09-12T15:22:16;26.80;52.20
20672;DHT22;10495;50.922;4.760;2022-09-12T15:24:42;26.60;52.30
20672;DHT22;10495;50.922;4.760;2022-09-12T15:27:10;26.50;52.20
20672;DHT22;10495;50.922;4.760;2022-09-12T15:29:37;26.70;52.00
20672;DHT22;10495;50.922;4.760;2022-09-12T15:32:03;27.00;51.00
20672;DHT22;10495;50.922;4.760;2022-09-12T15:34:30;27.00;51.30
20672;DHT22;10495;50.922;4.760;2022-09-12T15:36:56;27.30;51.00
20672;DHT22;10495;50.922;4.760;2022-09-12T15:39:21;27.10;51.90
20672;DHT22;10495;50.922;4.760;2022-09-12T15:41:47;27.00;52.00
20672;DHT22;10495;50.922;4.760;2022-09-12T15:44:13;27.00;52.00
20672;DHT22;10495;50.922;4.760;2022-09-12T15:46:39;27.00;51.50
20672;DHT22;10495;50.922;4.760;2022-09-12T15:49:05;27.20;50.60
20672;DHT22;10495;50.922;4.760;2022-09-12T15:51:31;27.00;51.20
20672;DHT22;10495;50.922;4.760;2022-09-12T15:53:58;26.90;51.40
20672;DHT22;10495;50.922;4.760;2022-09-12T15:56:24;26.90;51.00
20672;DHT22;10495;50.922;4.760;2022-09-12T15:58:50;27.00;51.10
20672;DHT22;10495;50.922;4.760;2022-09-12T16:01:16;26.90;51.40
20672;DHT22;10495;50.922;4.760;2022-09-12T16:03:45;26.90;51.60
20672;DHT22;10495;50.922;4.760;2022-09-12T16:06:11;26.90;51.60
20672;DHT22;10495;50.922;4.760;2022-09-12T16:08:37;27.00;51.30
20672;DHT22;10495;50.922;4.760;2022-09-12T16:11:06;26.90;51.60
20672;DHT22;10495;50.922;4.760;2022-09-12T16:13:32;26.80;51.90
20672;DHT22;10495;50.922;4.760;2022-09-12T16:15:58;26.70;51.80
20672;DHT22;10495;50.922;4.760;2022-09-12T16:18:25;26.60;51.20
20672;DHT22;10495;50.922;4.760;2022-09-12T16:20:52;26.80;51.50
20672;DHT22;10495;50.922;4.760;2022-09-12T16:23:18;26.90;50.50
20672;DHT22;10495;50.922;4.760;2022-09-12T16:25:43;26.80;51.40
20672;DHT22;10495;50.922;4.760;2022-09-12T16:28:09;26.70;51.00
20672;DHT22;10495;50.922;4.760;2022-09-12T16:30:35;26.60;51.30
20672;DHT22;10495;50.922;4.760;2022-09-12T16:33:01;26.50;51.40
20672;DHT22;10495;50.922;4.760;2022-09-12T16:35:26;26.40;51.00
20672;DHT22;10495;50.922;4.760;2022-09-12T16:37:52;26.30;51.70
20672;DHT22;10495;50.922;4.760;2022-09-12T16:40:18;26.20;51.70
20672;DHT22;10495;50.922;4.760;2022-09-12T16:42:46;26.20;51.60
20672;DHT22;10495;50.922;4.760;2022-09-12T16:45:12;26.10;51.70
20672;DHT22;10495;50.922;4.760;2022-09-12T16:47:38;26.20;51.60
20672;DHT22;10495;50.922;4.760;2022-09-12T16:50:04;26.10;51.80
20672;DHT22;10495;50.922;4.760;2022-09-12T16:52:30;26.00;51.80
20672;DHT22;10495;50.922;4.760;2022-09-12T16:54:56;25.90;52.40
20672;DHT22;10495;50.922;4.760;2022-09-12T16:57:22;25.90;52.60
20672;DHT22;10495;50.922;4.760;2022-09-12T16:59:48;25.70;53.20
20672;DHT22;10495;50.922;4.760;2022-09-12T17:02:13;25.70;53.40
20672;DHT22;10495;50.922;4.760;2022-09-12T17:04:39;25.80;53.80
20672;DHT22;10495;50.922;4.760;2022-09-12T17:07:05;25.70;53.90
20672;DHT22;10495;50.922;4.760;2022-09-12T17:09:31;25.70;54.30
20672;DHT22;10495;50.922;4.760;2022-09-12T17:11:56;25.60;54.60
20672;DHT22;10495;50.922;4.760;2022-09-12T17:14:22;25.50;54.90
20672;DHT22;10495;50.922;4.760;2022-09-12T17:16:48;25.40;55.10
20672;DHT22;10495;50.922;4.760;2022-09-12T17:19:16;25.30;55.30
20672;DHT22;10495;50.922;4.760;2022-09-12T17:21:44;25.30;55.30
20672;DHT22;10495;50.922;4.760;2022-09-12T17:24:11;25.30;55.30
20672;DHT22;10495;50.922;4.760;2022-09-12T17:26:37;25.20;55.60
20672;DHT22;10495;50.922;4.760;2022-09-12T17:29:03;25.10;55.70
20672;DHT22;10495;50.922;4.760;2022-09-12T17:31:29;25.10;55.80
20672;DHT22;10495;50.922;4.760;2022-09-12T17:33:59;25.00;56.10
20672;DHT22;10495;50.922;4.760;2022-09-12T17:36:26;25.20;56.30
20672;DHT22;10495;50.922;4.760;2022-09-12T17:38:52;25.20;55.90
20672;DHT22;10495;50.922;4.760;2022-09-12T17:41:21;25.00;56.10
20672;DHT22;10495;50.922;4.760;2022-09-12T17:43:49;24.80;56.30
20672;DHT22;10495;50.922;4.760;2022-09-12T17:46:19;24.70;56.60
20672;DHT22;10495;50.922;4.760;2022-09-12T17:48:49;24.60;56.80
20672;DHT22;10495;50.922;4.760;2022-09-12T17:51:15;24.60;57.00
20672;DHT22;10495;50.922;4.760;2022-09-12T17:53:41;24.50;57.50
20672;DHT22;10495;50.922;4.760;2022-09-12T17:56:08;24.40;57.60
20672;DHT22;10495;50.922;4.760;2022-09-12T17:58:34;24.30;58.10
20672;DHT22;10495;50.922;4.760;2022-09-12T18:01:09;24.10;58.90
20672;DHT22;10495;50.922;4.760;2022-09-12T18:03:58;24.00;58.70
20672;DHT22;10495;50.922;4.760;2022-09-12T18:06:27;23.90;58.80